createdAt,value
2022-09-13T00:02:18.677Z,14.91
2022-09-13T00:04:45.566Z,14.97
2022-09-13T00:07:12.416Z,15.08
2022-09-13T00:09:39.471Z,15.10
2022-09-13T00:12:06.637Z,15.08
2022-09-13T00:14:34.938Z,15.02
2022-09-13T00:17:01.906Z,14.98
2022-09-13T00:19:28.762Z,14.95
2022-09-13T00:21:55.649Z,14.98
2022-09-13T00:24:22.518Z,14.93
2022-09-13T00:26:49.588Z,14.82
2022-09-13T00:29:16.910Z,14.75
2022-09-13T00:31:45.341Z,14.68
2022-09-13T00:34:12.248Z,14.61
2022-09-13T00:36:39.130Z,14.51
2022-09-13T00:39:06.039Z,14.50
2022-09-13T00:41:33.646Z,14.43
2022-09-13T00:44:01.461Z,14.36
2022-09-13T00:46:35.270Z,14.44
2022-09-13T00:49:12.448Z,14.45
2022-09-13T00:51:42.592Z,14.40
2022-09-13T00:54:10.079Z,14.35
2022-09-13T00:56:41.424Z,14.33
2022-09-13T00:59:13.412Z,14.34
2022-09-13T01:01:46.029Z,14.39
2022-09-13T01:04:15.368Z,14.44
2022-09-13T01:06:43.141Z,14.45
2022-09-13T01:09:12.866Z,14.47
2022-09-13T01:11:47.299Z,14.41
2022-09-13T01:14:16.839Z,14.35
2022-09-13T01:16:47.633Z,14.32
2022-09-13T01:19:16.824Z,14.26
2022-09-13T01:22:16.098Z,14.26
2022-09-13T01:25:19.332Z,14.25
2022-09-13T01:28:10.578Z,14.25
2022-09-13T01:30:43.084Z,14.21
2022-09-13T01:33:38.363Z,14.19
2022-09-13T01:36:44.095Z,14.20
2022-09-13T01:39:17.744Z,14.22
2022-09-13T01:42:03.477Z,14.25
2022-09-13T01:44:42.198Z,14.32
2022-09-13T01:47:19.787Z,14.39
2022-09-13T01:49:53.507Z,14.36
2022-09-13T01:52:30.001Z,14.37
2022-09-13T01:55:05.828Z,14.40
2022-09-13T01:57:35.738Z,14.31
2022-09-13T02:00:08.540Z,14.21
2022-09-13T02:02:50.935Z,14.17
2022-09-13T02:05:21.448Z,14.12
2022-09-13T02:07:58.283Z,14.04
2022-09-13T02:10:29.956Z,13.96
2022-09-13T02:12:58.105Z,13.92
2022-09-13T02:15:29.145Z,13.88
2022-09-13T02:18:06.553Z,13.86
2022-09-13T02:20:37.284Z,13.82
2022-09-13T02:23:10.363Z,13.84
2022-09-13T02:25:40.255Z,13.93
2022-09-13T02:28:10.767Z,14.04
2022-09-13T02:30:40.752Z,14.07
2022-09-13T02:33:13.071Z,14.05
2022-09-13T02:35:45.242Z,14.02
2022-09-13T02:38:30.462Z,13.99
2022-09-13T02:41:00.835Z,14.10
2022-09-13T02:43:34.381Z,14.16
2022-09-13T02:46:15.087Z,14.15
2022-09-13T02:48:53.810Z,14.10
2022-09-13T02:51:30.434Z,14.09
2022-09-13T02:54:09.493Z,14.12
2022-09-13T02:56:47.588Z,14.09
2022-09-13T02:59:16.875Z,14.05
2022-09-13T03:01:49.509Z,14.03
2022-09-13T03:04:17.795Z,14.06
2022-09-13T03:06:44.678Z,14.02
2022-09-13T03:09:12.118Z,14.00
2022-09-13T03:11:56.343Z,13.94
2022-09-13T03:14:37.631Z,13.85
2022-09-13T03:20:31.783Z,13.83
2022-09-13T03:23:13.053Z,13.85
2022-09-13T03:26:04.548Z,13.82
2022-09-13T03:28:39.635Z,13.65
2022-09-13T03:31:09.916Z,13.74
2022-09-13T03:33:46.995Z,13.80
2022-09-13T03:36:21.826Z,13.85
2022-09-13T03:39:00.653Z,13.80
2022-09-13T03:41:32.701Z,13.82
2022-09-13T03:44:04.778Z,13.83
2022-09-13T03:46:37.910Z,13.83
2022-09-13T03:49:08.944Z,13.88
2022-09-13T03:51:38.506Z,13.89
2022-09-13T03:54:08.842Z,13.92
2022-09-13T03:56:35.807Z,13.90
2022-09-13T03:59:02.701Z,13.88
2022-09-13T04:01:29.672Z,13.88
2022-09-13T04:03:57.162Z,13.91
2022-09-13T04:06:24.106Z,13.93
2022-09-13T04:08:52.336Z,13.95
2022-09-13T04:11:23.501Z,13.94
2022-09-13T04:13:50.547Z,13.92
2022-09-13T04:16:17.619Z,14.08
2022-09-13T04:18:44.547Z,14.22
2022-09-13T04:21:11.850Z,14.31
2022-09-13T04:23:38.760Z,14.35
2022-09-13T04:26:07.026Z,14.39
2022-09-13T04:28:33.967Z,14.45
2022-09-13T04:31:00.771Z,14.48
2022-09-13T04:33:27.624Z,14.51
2022-09-13T04:35:58.315Z,14.50
2022-09-13T04:38:25.189Z,14.47
2022-09-13T04:40:55.947Z,14.51
2022-09-13T04:43:24.690Z,14.53
2022-09-13T04:45:51.913Z,14.56
2022-09-13T04:48:18.809Z,14.60
2022-09-13T04:50:45.877Z,14.58
2022-09-13T04:53:12.771Z,14.53
2022-09-13T04:55:39.583Z,14.48
2022-09-13T04:58:06.489Z,14.43
2022-09-13T05:00:35.633Z,14.36
2022-09-13T05:03:02.564Z,14.34
2022-09-13T05:05:29.447Z,14.29
2022-09-13T05:07:56.358Z,14.24
2022-09-13T05:10:23.318Z,14.21
2022-09-13T05:12:50.157Z,14.20
2022-09-13T05:15:17.288Z,14.25
2022-09-13T05:17:45.660Z,14.27
2022-09-13T05:20:12.852Z,14.30
2022-09-13T05:22:39.807Z,14.33
2022-09-13T05:25:08.118Z,14.24
2022-09-13T05:27:35.017Z,14.34
2022-09-13T05:30:02.043Z,14.49
2022-09-13T05:32:30.649Z,14.60
2022-09-13T05:34:58.962Z,14.71
2022-09-13T05:37:25.801Z,14.84
2022-09-13T05:40:11.494Z,15.02
2022-09-13T05:42:38.783Z,15.27
2022-09-13T05:45:06.944Z,15.49
2022-09-13T05:47:33.825Z,15.75
2022-09-13T05:50:10.342Z,15.97
2022-09-13T05:52:38.826Z,16.19
2022-09-13T05:55:05.899Z,16.46
2022-09-13T05:57:32.802Z,16.69
2022-09-13T05:59:59.666Z,17.00
2022-09-13T06:02:26.592Z,17.23
2022-09-13T06:04:53.458Z,17.51
2022-09-13T06:07:21.650Z,17.77
2022-09-13T06:09:48.642Z,18.05
2022-09-13T06:12:15.472Z,18.03
2022-09-13T06:14:42.295Z,17.55
2022-09-13T06:17:09.158Z,17.34
2022-09-13T06:19:36.010Z,16.73
2022-09-13T06:22:03.072Z,16.60
2022-09-13T06:24:31.575Z,16.44
2022-09-13T06:26:59.528Z,16.52
2022-09-13T06:29:27.426Z,16.60
2022-09-13T06:31:55.097Z,16.67
2022-09-13T06:34:22.293Z,16.59
2022-09-13T06:36:50.502Z,16.89
2022-09-13T06:39:17.541Z,17.08
2022-09-13T06:41:46.459Z,17.04
2022-09-13T06:46:56.681Z,17.39
2022-09-13T06:49:23.503Z,17.29
2022-09-13T06:51:52.869Z,17.06
2022-09-13T06:54:19.904Z,17.10
2022-09-13T06:56:48.159Z,17.41
2022-09-13T06:59:14.981Z,17.88
2022-09-13T07:01:45.179Z,18.20
2022-09-13T07:04:14.780Z,18.58
2022-09-13T07:06:43.697Z,18.82
2022-09-13T07:09:13.389Z,19.07
2022-09-13T07:11:42.147Z,19.25
2022-09-13T07:14:13.801Z,19.59
2022-09-13T07:16:40.889Z,19.99
2022-09-13T07:19:13.158Z,20.56
2022-09-13T07:21:40.231Z,21.19
2022-09-13T07:24:07.393Z,21.46
2022-09-13T07:26:34.655Z,21.37
2022-09-13T07:29:03.792Z,21.43
2022-09-13T07:31:33.938Z,21.35
2022-09-13T07:34:02.805Z,21.20
2022-09-13T07:36:31.582Z,21.17
2022-09-13T07:38:59.025Z,21.01
2022-09-13T07:41:28.091Z,21.12
2022-09-13T07:43:55.542Z,21.20
2022-09-13T07:46:23.815Z,21.35
2022-09-13T07:48:53.974Z,21.43
2022-09-13T07:51:22.670Z,21.48
2022-09-13T07:53:55.012Z,21.39
2022-09-13T07:56:25.373Z,21.16
2022-09-13T07:58:55.041Z,20.95
2022-09-13T08:01:23.967Z,20.84
2022-09-13T08:03:53.545Z,20.80
2022-09-13T08:06:20.748Z,20.72
2022-09-13T08:08:48.074Z,20.54
2022-09-13T08:11:19.212Z,20.20
2022-09-13T08:13:46.746Z,20.02
2022-09-13T08:16:14.511Z,20.15
2022-09-13T08:18:44.305Z,20.36
2022-09-13T08:21:12.866Z,20.52
2022-09-13T08:23:40.550Z,20.72
2022-09-13T08:26:08.442Z,20.89
2022-09-13T08:28:35.769Z,21.02
2022-09-13T08:31:06.956Z,21.22
2022-09-13T08:33:34.806Z,21.48
2022-09-13T08:36:02.439Z,21.58
2022-09-13T08:38:32.204Z,21.68
2022-09-13T08:41:02.473Z,21.40
2022-09-13T08:43:41.620Z,21.57
2022-09-13T08:46:15.440Z,21.71
2022-09-13T08:48:46.671Z,21.75
2022-09-13T08:51:27.279Z,21.70
2022-09-13T08:53:57.518Z,21.75
2022-09-13T08:56:32.016Z,21.88
2022-09-13T08:59:16.948Z,22.06
2022-09-13T09:01:54.865Z,22.10
2022-09-13T09:04:41.688Z,22.16
2022-09-13T09:07:13.713Z,22.26
2022-09-13T09:09:46.880Z,22.33
2022-09-13T09:12:22.838Z,22.49
2022-09-13T09:15:01.055Z,22.63
2022-09-13T09:17:34.935Z,22.66
2022-09-13T09:20:10.709Z,22.74
2022-09-13T09:22:37.631Z,22.81
2022-09-13T09:25:09.936Z,22.99
2022-09-13T09:27:36.785Z,23.01
2022-09-13T09:30:04.191Z,23.14
2022-09-13T09:32:52.561Z,23.35
2022-09-13T09:35:31.465Z,23.50
2022-09-13T09:38:21.647Z,23.54
2022-09-13T09:40:50.745Z,23.58
2022-09-13T09:43:25.008Z,23.57
2022-09-13T09:45:54.108Z,23.69
2022-09-13T09:48:27.068Z,23.87
2022-09-13T09:50:58.514Z,23.98
2022-09-13T09:53:31.613Z,24.09
2022-09-13T09:56:15.427Z,23.95
2022-09-13T09:58:45.175Z,24.04
2022-09-13T10:01:20.116Z,24.24
2022-09-13T10:03:58.427Z,24.31
2022-09-13T10:06:28.437Z,24.45
2022-09-13T10:09:00.107Z,24.67
2022-09-13T10:11:57.480Z,24.87
2022-09-13T10:14:31.177Z,25.01
2022-09-13T10:17:18.299Z,25.04
2022-09-13T10:19:54.641Z,24.90
2022-09-13T10:22:23.109Z,25.08
2022-09-13T10:24:50.739Z,25.08
2022-09-13T10:27:32.476Z,25.27
2022-09-13T10:30:02.299Z,25.45
2022-09-13T10:32:30.097Z,25.57
2022-09-13T10:35:07.859Z,25.45
2022-09-13T10:37:36.304Z,25.52
2022-09-13T10:40:09.768Z,25.66
2022-09-13T10:42:38.136Z,25.86
2022-09-13T10:45:07.626Z,26.07
2022-09-13T10:47:39.484Z,26.17
2022-09-13T10:50:20.268Z,26.40
2022-09-13T10:52:48.341Z,26.20
2022-09-13T10:55:29.030Z,26.30
2022-09-13T10:58:13.854Z,26.42
2022-09-13T11:00:53.353Z,26.39
2022-09-13T11:03:30.832Z,26.13
2022-09-13T11:06:07.725Z,26.09
2022-09-13T11:08:46.538Z,26.21
2022-09-13T11:11:22.937Z,26.38
2022-09-13T11:14:15.166Z,26.52
2022-09-13T11:16:53.364Z,26.56
2022-09-13T11:19:45.421Z,26.59
2022-09-13T11:22:43.058Z,26.73
2022-09-13T11:25:23.281Z,26.90
2022-09-13T11:28:00.157Z,27.07
2022-09-13T11:30:34.512Z,27.20
2022-09-13T11:33:15.995Z,27.27
2022-09-13T11:35:49.439Z,27.32
2022-09-13T11:38:41.411Z,27.29
2022-09-13T11:41:18.114Z,27.29
2022-09-13T11:43:56.758Z,27.49
2022-09-13T11:46:33.349Z,27.73
2022-09-13T11:49:42.125Z,27.91
2022-09-13T11:52:15.929Z,27.99
2022-09-13T11:54:55.473Z,28.20
2022-09-13T11:57:27.546Z,28.42
2022-09-13T11:59:59.393Z,28.19
2022-09-13T12:02:32.298Z,28.26
2022-09-13T12:05:22.516Z,28.07
2022-09-13T12:07:56.680Z,28.09
2022-09-13T12:10:27.504Z,28.18
2022-09-13T12:12:57.208Z,28.07
2022-09-13T12:15:33.043Z,28.19
2022-09-13T12:18:07.515Z,28.28
2022-09-13T12:20:38.218Z,27.77
2022-09-13T12:23:12.716Z,28.12
2022-09-13T12:25:46.319Z,28.15
2022-09-13T12:28:19.552Z,28.27
2022-09-13T12:30:52.427Z,28.26
2022-09-13T12:33:21.231Z,28.43
2022-09-13T12:36:17.039Z,28.45
2022-09-13T12:39:10.782Z,28.23
2022-09-13T12:41:52.163Z,28.38
2022-09-13T12:44:35.023Z,28.40
2022-09-13T12:47:19.387Z,28.33
2022-09-13T12:53:13.120Z,28.06
2022-09-13T12:56:02.270Z,27.86
2022-09-13T12:58:48.172Z,27.34
2022-09-13T13:01:20.705Z,27.26
2022-09-13T13:03:53.109Z,27.33
2022-09-13T13:06:34.180Z,27.16
2022-09-13T13:09:02.320Z,27.25
2022-09-13T13:11:47.329Z,27.40
2022-09-13T13:14:46.470Z,27.52
2022-09-13T13:17:46.678Z,27.19
2022-09-13T13:20:47.025Z,27.06
2022-09-13T13:23:23.541Z,27.58
2022-09-13T13:26:11.895Z,27.57
2022-09-13T13:29:08.231Z,27.64
2022-09-13T13:31:37.052Z,27.47
2022-09-13T13:34:47.323Z,27.31
2022-09-13T13:37:28.652Z,27.92
2022-09-13T13:40:25.367Z,28.19
2022-09-13T13:43:30.818Z,28.12
2022-09-13T13:46:30.244Z,27.79
2022-09-13T13:49:18.264Z,28.09
2022-09-13T13:51:45.359Z,28.27
2022-09-13T13:54:31.314Z,28.24
2022-09-13T13:57:00.209Z,28.33
2022-09-13T13:59:32.127Z,28.28
2022-09-13T14:02:01.803Z,28.46
2022-09-13T14:04:53.233Z,28.44
2022-09-13T14:07:35.753Z,28.52
2022-09-13T14:10:11.253Z,28.72
2022-09-13T14:12:54.342Z,28.87
2022-09-13T14:15:39.746Z,29.20
2022-09-13T14:18:26.099Z,28.85
2022-09-13T14:21:04.753Z,29.32
2022-09-13T14:23:32.426Z,29.51
2022-09-13T14:26:01.123Z,30.01
2022-09-13T14:28:32.042Z,30.16
2022-09-13T14:30:59.831Z,30.09
2022-09-13T14:33:31.405Z,30.09
2022-09-13T14:36:05.427Z,30.16
2022-09-13T14:38:35.436Z,30.41
2022-09-13T14:41:13.617Z,30.55
2022-09-13T14:43:42.892Z,30.55
2022-09-13T14:46:14.530Z,30.36
2022-09-13T14:48:45.437Z,30.43
2022-09-13T14:51:17.779Z,30.36
2022-09-13T14:53:47.283Z,30.15
2022-09-13T14:56:18.357Z,29.77
2022-09-13T14:58:49.937Z,29.83
2022-09-13T15:01:21.871Z,29.95
2022-09-13T15:03:49.601Z,29.97
2022-09-13T15:06:23.431Z,29.57
2022-09-13T15:08:56.177Z,29.64
2022-09-13T15:11:33.310Z,29.43
2022-09-13T15:14:25.459Z,29.60
2022-09-13T15:16:55.328Z,29.69
2022-09-13T15:19:41.165Z,29.72
2022-09-13T15:25:05.080Z,29.10
2022-09-13T15:27:44.364Z,28.93
2022-09-13T15:30:21.681Z,29.02
2022-09-13T15:32:48.605Z,29.26
2022-09-13T15:35:23.793Z,29.16
2022-09-13T15:37:59.882Z,29.21
2022-09-13T15:40:29.357Z,29.15
2022-09-13T15:42:56.601Z,29.10
2022-09-13T15:45:24.874Z,29.11
2022-09-13T15:47:52.710Z,28.96
2022-09-13T15:50:22.552Z,28.60
2022-09-13T15:52:49.641Z,28.71
2022-09-13T15:55:16.673Z,28.61
2022-09-13T15:57:45.823Z,28.62
2022-09-13T16:00:18.894Z,28.50
2022-09-13T16:02:47.281Z,28.54
2022-09-13T16:05:14.703Z,28.53
2022-09-13T16:07:42.499Z,28.48
2022-09-13T16:10:15.591Z,28.55
2022-09-13T16:12:42.964Z,28.51
2022-09-13T16:15:10.660Z,28.51
2022-09-13T16:17:37.534Z,28.51
2022-09-13T16:20:08.590Z,28.42
2022-09-13T16:22:36.722Z,28.37
2022-09-13T16:25:03.713Z,28.32
2022-09-13T16:27:33.808Z,28.29
2022-09-13T16:30:01.113Z,28.27
2022-09-13T16:32:27.988Z,28.23
2022-09-13T16:34:54.946Z,28.13
2022-09-13T16:37:23.934Z,28.07
2022-09-13T16:39:50.827Z,27.98
2022-09-13T16:42:18.157Z,27.96
2022-09-13T16:44:45.083Z,27.90
2022-09-13T16:47:12.350Z,27.83
2022-09-13T16:49:39.309Z,27.79
2022-09-13T16:52:06.377Z,27.70
2022-09-13T16:54:35.128Z,27.60
2022-09-13T16:57:02.491Z,27.55
2022-09-13T16:59:29.504Z,27.52
2022-09-13T17:01:56.598Z,27.49
2022-09-13T17:04:24.051Z,27.41
2022-09-13T17:06:51.009Z,27.30
2022-09-13T17:09:18.280Z,27.23
2022-09-13T17:11:46.876Z,27.17
2022-09-13T17:14:17.282Z,27.13
2022-09-13T17:16:47.545Z,27.03
2022-09-13T17:19:17.207Z,26.94
2022-09-13T17:21:44.524Z,26.76
2022-09-13T17:24:13.677Z,26.66
2022-09-13T17:26:40.898Z,26.60
2022-09-13T17:29:09.318Z,26.48
2022-09-13T17:31:36.437Z,26.43
2022-09-13T17:34:03.708Z,26.37
2022-09-13T17:36:31.218Z,26.31
2022-09-13T17:38:58.554Z,26.20
2022-09-13T17:41:25.996Z,26.15
2022-09-13T17:43:54.319Z,26.07
2022-09-13T17:46:24.391Z,26.01
2022-09-13T17:48:53.395Z,25.94
2022-09-13T17:51:21.780Z,25.80
2022-09-13T17:53:50.622Z,25.71
2022-09-13T17:56:18.824Z,25.66
2022-09-13T17:58:45.921Z,25.59
2022-09-13T18:01:13.209Z,25.47
2022-09-13T18:03:41.773Z,25.38
2022-09-13T18:06:10.040Z,25.38
2022-09-13T18:08:38.732Z,25.34
2022-09-13T18:11:14.740Z,25.26
2022-09-13T18:13:43.862Z,25.20
2022-09-13T18:16:17.252Z,25.06
2022-09-13T18:18:49.617Z,25.00
2022-09-13T18:21:20.256Z,25.02
2022-09-13T18:23:48.055Z,25.00
2022-09-13T18:26:16.692Z,24.98
2022-09-13T18:28:44.077Z,24.85
2022-09-13T18:31:16.911Z,24.81
2022-09-13T18:33:44.833Z,24.71
2022-09-13T18:36:14.489Z,24.76
2022-09-13T18:38:42.818Z,24.63
2022-09-13T18:43:56.407Z,24.52
2022-09-13T18:46:27.061Z,24.44
2022-09-13T18:48:57.785Z,24.33
2022-09-13T18:51:30.554Z,24.23
2022-09-13T18:53:59.316Z,24.26
2022-09-13T18:56:27.636Z,24.16
2022-09-13T18:59:00.500Z,24.07
2022-09-13T19:01:30.377Z,24.02
2022-09-13T19:03:59.600Z,23.91
2022-09-13T19:06:29.919Z,23.80
2022-09-13T19:08:58.858Z,23.84
2022-09-13T19:11:46.888Z,23.76
2022-09-13T19:14:16.286Z,23.90
2022-09-13T19:16:43.319Z,23.91
2022-09-13T19:19:10.691Z,23.95
2022-09-13T19:21:39.809Z,23.98
2022-09-13T19:24:17.243Z,24.02
2022-09-13T19:26:49.942Z,24.03
2022-09-13T19:29:22.667Z,24.06
2022-09-13T19:31:52.156Z,24.06
2022-09-13T19:34:22.176Z,24.07
2022-09-13T19:36:58.499Z,24.06
2022-09-13T19:39:30.243Z,24.09
2022-09-13T19:41:58.973Z,24.08
2022-09-13T19:44:26.392Z,24.13
2022-09-13T19:47:26.926Z,24.11
2022-09-13T19:49:41.945Z,24.13
2022-09-13T19:52:10.497Z,24.18
2022-09-13T19:54:37.604Z,24.23
2022-09-13T19:57:07.197Z,24.21
2022-09-13T19:59:34.421Z,24.27
2022-09-13T20:02:01.482Z,24.33
2022-09-13T20:04:30.399Z,24.18
2022-09-13T20:06:57.831Z,24.22
2022-09-13T20:09:26.477Z,24.21
2022-09-13T20:12:00.141Z,24.11
2022-09-13T20:14:28.036Z,23.87
2022-09-13T20:16:58.118Z,23.82
2022-09-13T20:19:44.747Z,23.91
2022-09-13T20:22:12.322Z,23.89
2022-09-13T20:24:40.808Z,24.00
2022-09-13T20:27:07.815Z,23.92
2022-09-13T20:29:34.698Z,23.89
2022-09-13T20:32:02.570Z,23.99
2022-09-13T20:34:29.588Z,24.06
2022-09-13T20:36:56.892Z,23.99
2022-09-13T20:39:24.015Z,24.05
2022-09-13T20:41:54.756Z,24.15
2022-09-13T20:44:21.736Z,24.18
2022-09-13T20:46:48.682Z,23.90
2022-09-13T20:49:16.805Z,23.84
2022-09-13T20:51:43.714Z,23.84
2022-09-13T20:54:12.492Z,23.81
2022-09-13T20:57:06.074Z,23.71
2022-09-13T20:59:33.109Z,23.70
2022-09-13T21:02:00.265Z,23.54
2022-09-13T21:04:27.702Z,23.55
2022-09-13T21:07:14.870Z,23.69
2022-09-13T21:09:42.279Z,23.77
2022-09-13T21:12:10.702Z,23.80
2022-09-13T21:14:37.730Z,23.84
2022-09-13T21:17:06.689Z,23.74
2022-09-13T21:19:33.686Z,23.77
2022-09-13T21:22:02.772Z,23.79
2022-09-13T21:24:29.734Z,23.80
2022-09-13T21:26:57.295Z,23.75
2022-09-13T21:29:25.816Z,23.71
2022-09-13T21:31:52.869Z,23.61
2022-09-13T21:34:19.908Z,23.50
2022-09-13T21:36:47.406Z,23.51
2022-09-13T21:39:15.019Z,23.54
2022-09-13T21:41:42.375Z,23.53
2022-09-13T21:44:10.286Z,23.49
2022-09-13T21:46:39.970Z,23.43
2022-09-13T21:49:08.554Z,23.39
2022-09-13T21:51:37.529Z,23.32
2022-09-13T21:54:07.166Z,23.30
2022-09-13T21:56:37.749Z,23.29
2022-09-13T21:59:07.234Z,23.23
2022-09-13T22:01:36.090Z,23.18
2022-09-13T22:04:04.991Z,23.14
2022-09-13T22:06:34.595Z,23.18
2022-09-13T22:09:04.651Z,23.20
2022-09-13T22:11:33.798Z,23.23
2022-09-13T22:14:02.386Z,23.03
2022-09-13T22:16:31.626Z,23.11
2022-09-13T22:19:00.325Z,23.18
2022-09-13T22:21:31.619Z,23.23
2022-09-13T22:23:58.919Z,23.16
2022-09-13T22:26:27.952Z,23.14
2022-09-13T22:28:57.949Z,23.10
2022-09-13T22:31:26.892Z,23.10
2022-09-13T22:33:56.200Z,22.97
2022-09-13T22:36:23.927Z,22.99
2022-09-13T22:38:54.878Z,22.92
2022-09-13T22:41:22.648Z,22.81
2022-09-13T22:43:49.739Z,22.74
2022-09-13T22:46:19.562Z,22.77
2022-09-13T22:48:47.123Z,22.84
2022-09-13T22:51:16.340Z,22.90
2022-09-13T22:53:45.013Z,22.86
2022-09-13T22:56:15.498Z,22.92
2022-09-13T22:58:43.392Z,22.98
2022-09-13T23:01:12.474Z,23.07
2022-09-13T23:03:41.226Z,23.10
2022-09-13T23:06:10.256Z,23.18
2022-09-13T23:08:38.712Z,23.18
2022-09-13T23:11:10.678Z,23.22
2022-09-13T23:13:39.311Z,23.22
2022-09-13T23:16:08.031Z,23.18
2022-09-13T23:18:35.171Z,23.12
2022-09-13T23:21:02.703Z,23.04
2022-09-13T23:23:29.683Z,23.03
2022-09-13T23:26:03.811Z,23.01
2022-09-13T23:28:31.681Z,23.00
2022-09-13T23:31:09.824Z,23.01
2022-09-13T23:33:38.514Z,23.10
2022-09-13T23:36:05.496Z,23.16
2022-09-13T23:38:32.794Z,23.02
2022-09-13T23:40:59.833Z,22.97
2022-09-13T23:43:27.308Z,23.01
2022-09-13T23:45:54.240Z,22.77
2022-09-13T23:48:22.987Z,22.85
2022-09-13T23:50:58.286Z,22.77
2022-09-13T23:53:25.122Z,22.80
2022-09-13T23:55:52.033Z,22.85
2022-09-13T23:58:18.855Z,22.72
